My Meet Scores
Lauren Norkus, Elite Sports Complex Inc. - MyMeetScores.com
Top100 | Top Teams | Upcoming Meets | Completed Meets | Latest | Add Scores | Help| Support | Bookmark and Share

Lauren Norkus, Elite Sports Complex Inc.
Personal Bests
LevelVault BarsBeamFloorAA
38.9009.550 9.1508.77536.025
48.3758.900 8.8508.55033.800
XG8.9009.175 9.1009.07535.350
XP8.8758.750 8.6008.55034.325
Meet Scores
Date Meet Team Session Level Division Vault Bars Beam Floor AA
2020-02-21 Kinetic Classic Elite Sports Complex Inc. 11 XP Middle 8.875 48 8.650 31T 8.300 38T 8.500 46 34.325 43
2020-01-31 Big Chill Elite Sports Complex Inc. 3 XP 13 & 14 8.325 15 7.750 15 7.100 16 8.550 16 31.725 16
2020-01-24 King Arthur Invitational Elite Sports Complex Inc. 10 XP SR A 8.350 15 8.750 10 8.450 8 8.200 15 33.750 11
2020-01-10 Leenda's Island Adventure Elite Sports Complex Inc. GG5 XP 13 Year Ol 8.100 15 8.500 11T 7.250 14 8.000 15 31.850 15
2019-12-13 2019 St Nick Elite Sports Complex Inc. 4 XP SrA 8.275 16 7.850 10 8.600 9T 7.450 16 32.175 16
2019-04-05 2019 Illinois XG, XP, XD State Championships Elite Sports Complex Inc. 9 XG Sr A 8.650 22 8.700 19 9.100 15 8.900 20 35.350 20
2019-02-08 Midwest Twisters Harley Meet Womens Elite Sports Complex Inc. S03 XG 12 yrs. 8.250 18T 8.950 5 7.950 18T 8.650 17 33.800 16
2019-01-25 King Arthur Invitational Elite Sports Complex Inc. 18 XG JR 8.900 10T 8.550 12 7.600 14 9.075 9 34.125 12
2019-01-04 Leenda's Island Adventure Elite Sports Complex Inc. P07 XG 12 Year Ol 8.175 12 9.175 10 8.425 9T 8.150 13 33.925 12
2018-12-07 St. Nick Invite 2018 Elite Sports Complex Inc. 4 XG SrA 8.350 17 8.475 12 8.300 15T 8.575 18T 33.700 16
2018-02-23 Kinetic Classic Infinity Gymnastics Academy 7 4 Older 7.500 89T 8.450 59 8.550 72T 8.375 78T 32.875 80
2018-02-17 Women's Midwest Open Infinity Gymnastics Academy 08 4 JR B 8.375 13 8.100 14 8.500 10T 8.550 13T 33.525 14
2018-02-02 Chris Waller's Heart Of A Champion Invitational Infinity Gymnastics Academy 12H 4 Sr B 7.500 10 8.650 2 8.850 3 7.500 10 32.500 9
2018-01-18 Circle Of Stars Gymnastics Invitational Infinity Gymnastics Academy C3 4 Sr B 8.100 15 8.900 11 8.850 13 7.950 15 33.800 14
2018-01-12 St Jude Benefit Meet Infinity Gymnastics Academy 3A 4 SrB 7.750 15 8.250 14T 8.400 14 7.925 15 32.325 15
2017-12-14 2017 Women's Hawaiian Pineapple Classic Infinity Gymnastics Academy 1A 4 Ages11+ 7.600 14T 8.400 6 8.450 10T 8.150 18 32.600 13
2017-11-10 Illinois NAWGJ Judges Cup 2017 Infinity Gymnastics Academy G3 4 All Ages 7.450 67 8.375 40T 8.750 28T 8.075 53 32.650 47
2017-03-30 2017 Illinois Level 3 & 5 State Infinity Gymnastics Academy All 3 Sr D 8.650 31 9.200 13T 9.150 12T 8.425 28 35.425 28
2017-03-10 Lucky Invitational Infinity Gymnastics Academy B02 3 Sr B 8.750 13 9.550 2 8.950 7T 8.775 14 36.025 12
2017-02-10 IGI Chicago Style Gymnastics Meet Infinity Gymnastics Academy 232L 3 Sr 8.500 22 9.325 7 8.425 20 8.350 20 34.600 19
2017-01-28 Wisconsin Dells Gymnastics Vacation Classic - USAG Infinity Gymnastics Academy B6 3 Senior 8.725 13 9.500 2 8.700 6 8.525 10 35.450 7
2017-01-13 St Jude Benefit Meet Infinity Gymnastics Academy 9A 3 Sr B 8.900 13T 9.450 3 7.900 15 8.750 16 35.000 10
2016-12-15 2016 Hawaiian Pineapple Sanction Infinity Gymnastics Academy 5B 3 Ages 11+ 8.650 16 9.150 3 8.400 11T 8.225 16 34.425 14
2016-11-11 2016 Illinois Judges Cup Infinity Gymnastics Academy B6 3 9-10 Year 8.725 17 8.950 4T 8.850 5* 8.350 12 34.875 6T
2016-02-19 Midwest Open Womens 2016 Infinity Gymnastics Academy 1A 3 9+ 8.100 26 8.450 20 7.250 26 7.650 26 31.450 26
2016-01-15 2016 Bravo Classic Infinity Gymnastics Academy 13A 3 9yrs 8.100 15 8.075 10 7.100 15 0.000 15 23.275 15
Get your scores on
a t-shirt, pin, or hoodie

www.lazysuits.com